sensor_id;sensor_type;location;lat;lon;timestamp;temperature;humidity
9730;DHT22;4904;49.152;11.004;2023-03-23T00:02:25;11.00;99.90
9730;DHT22;4904;49.152;11.004;2023-03-23T00:04:52;10.90;99.90
9730;DHT22;4904;49.152;11.004;2023-03-23T00:07:20;11.00;99.90
9730;DHT22;4904;49.152;11.004;2023-03-23T00:09:48;11.10;99.90
9730;DHT22;4904;49.152;11.004;2023-03-23T00:12:20;11.20;99.90
9730;DHT22;4904;49.152;11.004;2023-03-23T00:14:55;11.20;99.90
9730;DHT22;4904;49.152;11.004;2023-03-23T00:17:22;11.40;99.90
9730;DHT22;4904;49.152;11.004;2023-03-23T00:19:51;11.30;99.90
9730;DHT22;4904;49.152;11.004;2023-03-23T00:22:18;11.30;99.90
9730;DHT22;4904;49.152;11.004;2023-03-23T00:24:47;11.20;99.90
9730;DHT22;4904;49.152;11.004;2023-03-23T00:27:15;11.30;99.90
9730;DHT22;4904;49.152;11.004;2023-03-23T00:29:44;11.30;99.90
9730;DHT22;4904;49.152;11.004;2023-03-23T00:32:14;11.30;99.90
9730;DHT22;4904;49.152;11.004;2023-03-23T00:34:42;11.30;99.90
9730;DHT22;4904;49.152;11.004;2023-03-23T00:37:11;11.30;99.90
9730;DHT22;4904;49.152;11.004;2023-03-23T00:39:39;11.30;99.90
9730;DHT22;4904;49.152;11.004;2023-03-23T00:42:13;11.20;99.90
9730;DHT22;4904;49.152;11.004;2023-03-23T00:44:42;11.20;99.90
9730;DHT22;4904;49.152;11.004;2023-03-23T00:47:11;11.20;99.90
9730;DHT22;4904;49.152;11.004;2023-03-23T00:49:39;11.20;99.90
9730;DHT22;4904;49.152;11.004;2023-03-23T00:52:07;11.10;99.90
9730;DHT22;4904;49.152;11.004;2023-03-23T00:54:34;11.10;99.90
9730;DHT22;4904;49.152;11.004;2023-03-23T00:57:03;10.90;99.90
9730;DHT22;4904;49.152;11.004;2023-03-23T00:59:30;10.80;99.90
9730;DHT22;4904;49.152;11.004;2023-03-23T01:01:57;10.90;99.90
9730;DHT22;4904;49.152;11.004;2023-03-23T01:04:24;10.80;99.90
9730;DHT22;4904;49.152;11.004;2023-03-23T01:06:55;10.70;99.90
9730;DHT22;4904;49.152;11.004;2023-03-23T01:09:22;10.80;99.90
9730;DHT22;4904;49.152;11.004;2023-03-23T01:11:50;10.80;99.90
9730;DHT22;4904;49.152;11.004;2023-03-23T01:14:19;10.80;99.90
9730;DHT22;4904;49.152;11.004;2023-03-23T01:16:46;10.80;99.90
9730;DHT22;4904;49.152;11.004;2023-03-23T01:19:13;10.80;99.90
9730;DHT22;4904;49.152;11.004;2023-03-23T01:21:41;10.80;99.90
9730;DHT22;4904;49.152;11.004;2023-03-23T01:24:09;10.90;99.90
9730;DHT22;4904;49.152;11.004;2023-03-23T01:26:36;11.00;99.90
9730;DHT22;4904;49.152;11.004;2023-03-23T01:29:04;11.00;99.90
9730;DHT22;4904;49.152;11.004;2023-03-23T01:31:30;11.00;99.90
9730;DHT22;4904;49.152;11.004;2023-03-23T01:33:57;11.10;99.90
9730;DHT22;4904;49.152;11.004;2023-03-23T01:36:26;11.10;99.90
9730;DHT22;4904;49.152;11.004;2023-03-23T01:38:54;11.10;99.90
9730;DHT22;4904;49.152;11.004;2023-03-23T01:41:24;11.10;99.90
9730;DHT22;4904;49.152;11.004;2023-03-23T01:44:00;11.10;99.90
9730;DHT22;4904;49.152;11.004;2023-03-23T01:46:28;11.10;99.90
9730;DHT22;4904;49.152;11.004;2023-03-23T01:48:56;11.10;99.90
9730;DHT22;4904;49.152;11.004;2023-03-23T01:51:26;11.20;99.90
9730;DHT22;4904;49.152;11.004;2023-03-23T01:53:55;11.20;99.90
9730;DHT22;4904;49.152;11.004;2023-03-23T01:56:26;11.20;99.90
9730;DHT22;4904;49.152;11.004;2023-03-23T01:58:56;11.00;99.90
9730;DHT22;4904;49.152;11.004;2023-03-23T02:01:24;10.60;99.90
9730;DHT22;4904;49.152;11.004;2023-03-23T02:03:52;10.60;99.90
9730;DHT22;4904;49.152;11.004;2023-03-23T02:06:21;10.60;99.90
9730;DHT22;4904;49.152;11.004;2023-03-23T02:08:49;10.40;99.90
9730;DHT22;4904;49.152;11.004;2023-03-23T02:11:18;10.30;99.90
9730;DHT22;4904;49.152;11.004;2023-03-23T02:13:48;10.40;99.90
9730;DHT22;4904;49.152;11.004;2023-03-23T02:16:27;10.50;99.90
9730;DHT22;4904;49.152;11.004;2023-03-23T02:19:04;10.40;99.90
9730;DHT22;4904;49.152;11.004;2023-03-23T02:24:55;10.40;99.90
9730;DHT22;4904;49.152;11.004;2023-03-23T02:27:44;10.40;99.90
9730;DHT22;4904;49.152;11.004;2023-03-23T02:30:35;10.40;99.90
9730;DHT22;4904;49.152;11.004;2023-03-23T02:33:39;10.40;99.90
9730;DHT22;4904;49.152;11.004;2023-03-23T02:36:14;10.50;99.90
9730;DHT22;4904;49.152;11.004;2023-03-23T02:38:50;10.50;99.90
9730;DHT22;4904;49.152;11.004;2023-03-23T02:41:20;10.40;99.90
9730;DHT22;4904;49.152;11.004;2023-03-23T02:43:49;10.40;99.90
9730;DHT22;4904;49.152;11.004;2023-03-23T02:46:17;10.50;99.90
9730;DHT22;4904;49.152;11.004;2023-03-23T02:48:45;10.60;99.90
9730;DHT22;4904;49.152;11.004;2023-03-23T02:51:17;10.60;99.90
9730;DHT22;4904;49.152;11.004;2023-03-23T02:53:45;10.60;99.90
9730;DHT22;4904;49.152;11.004;2023-03-23T02:56:13;10.70;99.90
9730;DHT22;4904;49.152;11.004;2023-03-23T02:58:41;10.70;99.90
9730;DHT22;4904;49.152;11.004;2023-03-23T03:04:20;10.70;99.90
9730;DHT22;4904;49.152;11.004;2023-03-23T03:07:01;10.60;99.90
9730;DHT22;4904;49.152;11.004;2023-03-23T03:09:37;10.60;99.90
9730;DHT22;4904;49.152;11.004;2023-03-23T03:12:10;10.60;99.90
9730;DHT22;4904;49.152;11.004;2023-03-23T03:14:41;10.50;99.90
9730;DHT22;4904;49.152;11.004;2023-03-23T03:17:17;10.60;99.90
9730;DHT22;4904;49.152;11.004;2023-03-23T03:19:49;10.70;99.90
9730;DHT22;4904;49.152;11.004;2023-03-23T03:22:17;10.80;99.90
9730;DHT22;4904;49.152;11.004;2023-03-23T03:24:47;10.80;99.90
9730;DHT22;4904;49.152;11.004;2023-03-23T03:27:16;10.70;99.90
9730;DHT22;4904;49.152;11.004;2023-03-23T03:29:47;10.80;99.90
9730;DHT22;4904;49.152;11.004;2023-03-23T03:32:17;10.90;99.90
9730;DHT22;4904;49.152;11.004;2023-03-23T03:34:46;11.00;99.90
9730;DHT22;4904;49.152;11.004;2023-03-23T03:37:17;11.10;99.90
9730;DHT22;4904;49.152;11.004;2023-03-23T03:39:46;11.10;99.90
9730;DHT22;4904;49.152;11.004;2023-03-23T03:42:13;11.20;99.90
9730;DHT22;4904;49.152;11.004;2023-03-23T03:44:40;11.20;99.90
9730;DHT22;4904;49.152;11.004;2023-03-23T03:47:07;11.30;99.90
9730;DHT22;4904;49.152;11.004;2023-03-23T03:49:34;11.30;99.90
9730;DHT22;4904;49.152;11.004;2023-03-23T03:52:01;11.40;99.90
9730;DHT22;4904;49.152;11.004;2023-03-23T03:54:29;11.40;99.90
9730;DHT22;4904;49.152;11.004;2023-03-23T03:56:56;11.40;99.90
9730;DHT22;4904;49.152;11.004;2023-03-23T03:59:23;11.50;99.90
9730;DHT22;4904;49.152;11.004;2023-03-23T04:01:51;11.50;99.90
9730;DHT22;4904;49.152;11.004;2023-03-23T04:04:19;11.50;99.90
9730;DHT22;4904;49.152;11.004;2023-03-23T04:06:47;11.40;99.90
9730;DHT22;4904;49.152;11.004;2023-03-23T04:09:14;11.50;99.90
9730;DHT22;4904;49.152;11.004;2023-03-23T04:11:43;11.50;99.90
9730;DHT22;4904;49.152;11.004;2023-03-23T04:14:09;11.50;99.90
9730;DHT22;4904;49.152;11.004;2023-03-23T04:16:36;11.50;99.90
9730;DHT22;4904;49.152;11.004;2023-03-23T04:19:03;11.50;99.90
9730;DHT22;4904;49.152;11.004;2023-03-23T04:21:31;11.60;99.90
9730;DHT22;4904;49.152;11.004;2023-03-23T04:23:57;11.60;99.90
9730;DHT22;4904;49.152;11.004;2023-03-23T04:26:26;11.70;99.90
9730;DHT22;4904;49.152;11.004;2023-03-23T04:28:55;11.60;99.90
9730;DHT22;4904;49.152;11.004;2023-03-23T04:31:24;11.70;99.90
9730;DHT22;4904;49.152;11.004;2023-03-23T04:33:52;11.70;99.90
9730;DHT22;4904;49.152;11.004;2023-03-23T04:36:19;11.60;99.90
9730;DHT22;4904;49.152;11.004;2023-03-23T04:38:48;11.70;99.90
9730;DHT22;4904;49.152;11.004;2023-03-23T04:41:16;11.60;99.90
9730;DHT22;4904;49.152;11.004;2023-03-23T04:43:43;11.80;99.90
9730;DHT22;4904;49.152;11.004;2023-03-23T04:46:11;11.70;99.90
9730;DHT22;4904;49.152;11.004;2023-03-23T04:48:43;11.70;99.90
9730;DHT22;4904;49.152;11.004;2023-03-23T04:51:10;11.60;99.90
9730;DHT22;4904;49.152;11.004;2023-03-23T04:53:38;11.70;99.90
9730;DHT22;4904;49.152;11.004;2023-03-23T04:56:06;11.70;99.90
9730;DHT22;4904;49.152;11.004;2023-03-23T04:58:33;11.60;99.90
9730;DHT22;4904;49.152;11.004;2023-03-23T05:01:00;11.70;99.90
9730;DHT22;4904;49.152;11.004;2023-03-23T05:03:29;11.70;99.90
9730;DHT22;4904;49.152;11.004;2023-03-23T05:05:56;11.70;99.90
9730;DHT22;4904;49.152;11.004;2023-03-23T05:08:23;11.70;99.90
9730;DHT22;4904;49.152;11.004;2023-03-23T05:10:51;11.80;99.90
9730;DHT22;4904;49.152;11.004;2023-03-23T05:13:18;11.90;99.90
9730;DHT22;4904;49.152;11.004;2023-03-23T05:15:45;11.70;99.90
9730;DHT22;4904;49.152;11.004;2023-03-23T05:18:13;11.70;99.90
9730;DHT22;4904;49.152;11.004;2023-03-23T05:20:41;11.70;99.90
9730;DHT22;4904;49.152;11.004;2023-03-23T05:23:08;11.70;99.90
9730;DHT22;4904;49.152;11.004;2023-03-23T05:25:36;11.80;99.90
9730;DHT22;4904;49.152;11.004;2023-03-23T05:28:06;11.80;99.90
9730;DHT22;4904;49.152;11.004;2023-03-23T05:30:33;11.80;99.90
9730;DHT22;4904;49.152;11.004;2023-03-23T05:33:00;11.70;99.90
9730;DHT22;4904;49.152;11.004;2023-03-23T05:35:28;11.80;99.90
9730;DHT22;4904;49.152;11.004;2023-03-23T05:37:56;11.80;99.90
9730;DHT22;4904;49.152;11.004;2023-03-23T05:40:23;11.80;99.90
9730;DHT22;4904;49.152;11.004;2023-03-23T05:42:52;11.80;99.90
9730;DHT22;4904;49.152;11.004;2023-03-23T05:45:21;11.80;99.90
9730;DHT22;4904;49.152;11.004;2023-03-23T05:47:48;11.80;99.90
9730;DHT22;4904;49.152;11.004;2023-03-23T05:50:15;11.80;99.90
9730;DHT22;4904;49.152;11.004;2023-03-23T05:52:43;11.80;99.90
9730;DHT22;4904;49.152;11.004;2023-03-23T05:55:11;11.90;99.90
9730;DHT22;4904;49.152;11.004;2023-03-23T05:57:39;11.90;99.90
9730;DHT22;4904;49.152;11.004;2023-03-23T06:00:07;11.90;99.90
9730;DHT22;4904;49.152;11.004;2023-03-23T06:02:44;11.90;99.90
9730;DHT22;4904;49.152;11.004;2023-03-23T06:05:11;12.00;99.90
9730;DHT22;4904;49.152;11.004;2023-03-23T06:07:39;11.90;99.90
9730;DHT22;4904;49.152;11.004;2023-03-23T06:10:07;12.00;99.90
9730;DHT22;4904;49.152;11.004;2023-03-23T06:12:36;12.00;99.90
9730;DHT22;4904;49.152;11.004;2023-03-23T06:15:03;12.00;99.90
9730;DHT22;4904;49.152;11.004;2023-03-23T06:17:32;11.90;99.90
9730;DHT22;4904;49.152;11.004;2023-03-23T06:19:58;11.90;99.90
9730;DHT22;4904;49.152;11.004;2023-03-23T06:22:26;12.00;99.90
9730;DHT22;4904;49.152;11.004;2023-03-23T06:24:53;12.00;99.90
9730;DHT22;4904;49.152;11.004;2023-03-23T06:27:22;12.00;99.90
9730;DHT22;4904;49.152;11.004;2023-03-23T06:29:50;12.00;99.90
9730;DHT22;4904;49.152;11.004;2023-03-23T06:32:17;12.00;99.90
9730;DHT22;4904;49.152;11.004;2023-03-23T06:34:44;12.00;99.90
9730;DHT22;4904;49.152;11.004;2023-03-23T06:37:13;12.00;99.90
9730;DHT22;4904;49.152;11.004;2023-03-23T06:39:41;12.10;99.90
9730;DHT22;4904;49.152;11.004;2023-03-23T06:42:09;12.20;99.90
9730;DHT22;4904;49.152;11.004;2023-03-23T06:44:37;12.20;99.90
9730;DHT22;4904;49.152;11.004;2023-03-23T06:47:06;12.20;99.90
9730;DHT22;4904;49.152;11.004;2023-03-23T06:49:33;12.20;99.90
9730;DHT22;4904;49.152;11.004;2023-03-23T06:52:00;12.30;99.90
9730;DHT22;4904;49.152;11.004;2023-03-23T06:54:29;12.30;99.90
9730;DHT22;4904;49.152;11.004;2023-03-23T06:56:56;12.30;99.90
9730;DHT22;4904;49.152;11.004;2023-03-23T06:59:23;12.40;99.90
9730;DHT22;4904;49.152;11.004;2023-03-23T07:01:50;12.40;99.90
9730;DHT22;4904;49.152;11.004;2023-03-23T07:04:18;12.50;99.90
9730;DHT22;4904;49.152;11.004;2023-03-23T07:06:46;12.50;99.90
9730;DHT22;4904;49.152;11.004;2023-03-23T07:09:13;12.50;99.90
9730;DHT22;4904;49.152;11.004;2023-03-23T07:11:41;12.50;99.90
9730;DHT22;4904;49.152;11.004;2023-03-23T07:14:09;12.60;99.90
9730;DHT22;4904;49.152;11.004;2023-03-23T07:16:36;12.60;99.90
9730;DHT22;4904;49.152;11.004;2023-03-23T07:19:04;12.60;99.90
9730;DHT22;4904;49.152;11.004;2023-03-23T07:21:33;12.70;99.90
9730;DHT22;4904;49.152;11.004;2023-03-23T07:23:59;12.70;99.90
9730;DHT22;4904;49.152;11.004;2023-03-23T07:26:26;12.70;99.90
9730;DHT22;4904;49.152;11.004;2023-03-23T07:28:53;12.70;99.90
9730;DHT22;4904;49.152;11.004;2023-03-23T07:31:20;12.70;99.90
9730;DHT22;4904;49.152;11.004;2023-03-23T07:33:47;12.80;99.90
9730;DHT22;4904;49.152;11.004;2023-03-23T07:36:14;12.80;99.90
9730;DHT22;4904;49.152;11.004;2023-03-23T07:38:43;12.80;99.90
9730;DHT22;4904;49.152;11.004;2023-03-23T07:41:10;12.80;99.90
9730;DHT22;4904;49.152;11.004;2023-03-23T07:43:37;12.90;99.90
9730;DHT22;4904;49.152;11.004;2023-03-23T07:46:04;12.90;99.90
9730;DHT22;4904;49.152;11.004;2023-03-23T07:48:31;12.90;99.90
9730;DHT22;4904;49.152;11.004;2023-03-23T07:50:58;13.00;99.90
9730;DHT22;4904;49.152;11.004;2023-03-23T07:53:25;13.00;99.90
9730;DHT22;4904;49.152;11.004;2023-03-23T07:55:54;13.00;99.90
9730;DHT22;4904;49.152;11.004;2023-03-23T07:58:21;13.10;99.90
9730;DHT22;4904;49.152;11.004;2023-03-23T08:00:48;13.20;99.90
9730;DHT22;4904;49.152;11.004;2023-03-23T08:03:16;13.30;99.90
9730;DHT22;4904;49.152;11.004;2023-03-23T08:05:43;13.30;99.90
9730;DHT22;4904;49.152;11.004;2023-03-23T08:08:11;13.40;99.90
9730;DHT22;4904;49.152;11.004;2023-03-23T08:10:37;13.50;99.90
9730;DHT22;4904;49.152;11.004;2023-03-23T08:13:06;13.60;99.90
9730;DHT22;4904;49.152;11.004;2023-03-23T08:15:34;13.70;99.90
9730;DHT22;4904;49.152;11.004;2023-03-23T08:18:03;13.80;99.90
9730;DHT22;4904;49.152;11.004;2023-03-23T08:20:30;13.90;99.90
9730;DHT22;4904;49.152;11.004;2023-03-23T08:22:58;14.00;99.90
9730;DHT22;4904;49.152;11.004;2023-03-23T08:25:27;14.20;99.90
9730;DHT22;4904;49.152;11.004;2023-03-23T08:27:57;14.30;99.90
9730;DHT22;4904;49.152;11.004;2023-03-23T08:30:25;14.30;99.90
9730;DHT22;4904;49.152;11.004;2023-03-23T08:32:54;14.30;99.90
9730;DHT22;4904;49.152;11.004;2023-03-23T08:35:22;14.30;99.90
9730;DHT22;4904;49.152;11.004;2023-03-23T08:37:50;14.30;99.90
9730;DHT22;4904;49.152;11.004;2023-03-23T08:40:19;14.20;99.90
9730;DHT22;4904;49.152;11.004;2023-03-23T08:42:47;14.20;99.90
9730;DHT22;4904;49.152;11.004;2023-03-23T08:45:16;14.10;99.90
9730;DHT22;4904;49.152;11.004;2023-03-23T08:47:45;14.00;99.90
9730;DHT22;4904;49.152;11.004;2023-03-23T08:50:14;14.00;99.90
9730;DHT22;4904;49.152;11.004;2023-03-23T08:52:41;14.00;99.90
9730;DHT22;4904;49.152;11.004;2023-03-23T08:55:09;14.00;99.90
9730;DHT22;4904;49.152;11.004;2023-03-23T08:57:37;13.90;99.90
9730;DHT22;4904;49.152;11.004;2023-03-23T09:00:05;13.90;99.90
9730;DHT22;4904;49.152;11.004;2023-03-23T09:02:41;14.00;99.90
9730;DHT22;4904;49.152;11.004;2023-03-23T09:05:10;13.90;99.90
9730;DHT22;4904;49.152;11.004;2023-03-23T09:07:37;14.00;99.90
9730;DHT22;4904;49.152;11.004;2023-03-23T09:10:06;14.00;99.90
9730;DHT22;4904;49.152;11.004;2023-03-23T09:12:33;14.00;99.90
9730;DHT22;4904;49.152;11.004;2023-03-23T09:15:01;14.00;99.90
9730;DHT22;4904;49.152;11.004;2023-03-23T09:17:30;14.10;99.90
9730;DHT22;4904;49.152;11.004;2023-03-23T09:19:57;14.10;99.90
9730;DHT22;4904;49.152;11.004;2023-03-23T09:22:26;14.20;99.90
9730;DHT22;4904;49.152;11.004;2023-03-23T09:24:53;14.60;99.90
9730;DHT22;4904;49.152;11.004;2023-03-23T09:27:20;14.20;99.90
9730;DHT22;4904;49.152;11.004;2023-03-23T09:29:46;14.30;99.90
9730;DHT22;4904;49.152;11.004;2023-03-23T09:32:14;14.30;99.90
9730;DHT22;4904;49.152;11.004;2023-03-23T09:34:41;14.40;99.90
9730;DHT22;4904;49.152;11.004;2023-03-23T09:37:08;14.40;99.90
9730;DHT22;4904;49.152;11.004;2023-03-23T09:39:38;14.50;99.90
9730;DHT22;4904;49.152;11.004;2023-03-23T09:42:18;14.50;99.90
9730;DHT22;4904;49.152;11.004;2023-03-23T09:44:57;14.50;99.90
9730;DHT22;4904;49.152;11.004;2023-03-23T09:47:36;14.60;99.90
9730;DHT22;4904;49.152;11.004;2023-03-23T09:50:10;14.60;99.90
9730;DHT22;4904;49.152;11.004;2023-03-23T09:52:41;14.70;99.90
9730;DHT22;4904;49.152;11.004;2023-03-23T09:55:12;14.80;99.90
9730;DHT22;4904;49.152;11.004;2023-03-23T09:57:46;14.90;99.90
9730;DHT22;4904;49.152;11.004;2023-03-23T10:00:18;14.90;99.90
9730;DHT22;4904;49.152;11.004;2023-03-23T10:02:51;15.00;99.90
9730;DHT22;4904;49.152;11.004;2023-03-23T10:05:29;15.10;99.90
9730;DHT22;4904;49.152;11.004;2023-03-23T10:07:56;15.10;99.90
9730;DHT22;4904;49.152;11.004;2023-03-23T10:10:32;15.20;99.90
9730;DHT22;4904;49.152;11.004;2023-03-23T10:13:06;15.20;99.90
9730;DHT22;4904;49.152;11.004;2023-03-23T10:15:38;15.20;99.90
9730;DHT22;4904;49.152;11.004;2023-03-23T10:18:13;15.20;99.90
9730;DHT22;4904;49.152;11.004;2023-03-23T10:20:45;15.30;99.90
9730;DHT22;4904;49.152;11.004;2023-03-23T10:23:24;15.30;99.90
9730;DHT22;4904;49.152;11.004;2023-03-23T10:26:06;15.30;99.90
9730;DHT22;4904;49.152;11.004;2023-03-23T10:28:37;15.30;99.90
9730;DHT22;4904;49.152;11.004;2023-03-23T10:31:05;15.30;99.90
9730;DHT22;4904;49.152;11.004;2023-03-23T10:33:39;15.40;99.90
9730;DHT22;4904;49.152;11.004;2023-03-23T10:36:12;15.30;99.90
9730;DHT22;4904;49.152;11.004;2023-03-23T10:38:43;15.30;99.90
9730;DHT22;4904;49.152;11.004;2023-03-23T10:41:16;15.40;99.90
9730;DHT22;4904;49.152;11.004;2023-03-23T10:43:44;15.30;99.90
9730;DHT22;4904;49.152;11.004;2023-03-23T10:46:22;15.30;99.90
9730;DHT22;4904;49.152;11.004;2023-03-23T10:48:53;15.30;99.90
9730;DHT22;4904;49.152;11.004;2023-03-23T10:51:28;15.30;99.90
9730;DHT22;4904;49.152;11.004;2023-03-23T10:53:59;15.40;99.90
9730;DHT22;4904;49.152;11.004;2023-03-23T10:56:34;15.40;99.90
9730;DHT22;4904;49.152;11.004;2023-03-23T10:59:11;15.30;99.90
9730;DHT22;4904;49.152;11.004;2023-03-23T11:01:41;15.40;99.90
9730;DHT22;4904;49.152;11.004;2023-03-23T11:04:12;15.40;99.90
9730;DHT22;4904;49.152;11.004;2023-03-23T11:06:44;15.50;99.90
9730;DHT22;4904;49.152;11.004;2023-03-23T11:09:13;15.50;99.90
9730;DHT22;4904;49.152;11.004;2023-03-23T11:11:43;15.60;99.90
9730;DHT22;4904;49.152;11.004;2023-03-23T11:14:16;15.50;99.90
9730;DHT22;4904;49.152;11.004;2023-03-23T11:16:49;15.50;99.90
9730;DHT22;4904;49.152;11.004;2023-03-23T11:19:22;15.50;99.90
9730;DHT22;4904;49.152;11.004;2023-03-23T11:21:50;15.50;99.90
9730;DHT22;4904;49.152;11.004;2023-03-23T11:24:18;15.40;99.90
9730;DHT22;4904;49.152;11.004;2023-03-23T11:26:46;15.30;99.90
9730;DHT22;4904;49.152;11.004;2023-03-23T11:29:15;15.30;99.90
9730;DHT22;4904;49.152;11.004;2023-03-23T11:31:47;15.20;99.90
9730;DHT22;4904;49.152;11.004;2023-03-23T11:34:19;15.20;99.90
9730;DHT22;4904;49.152;11.004;2023-03-23T11:36:50;15.00;99.90
9730;DHT22;4904;49.152;11.004;2023-03-23T11:39:23;15.00;99.90
9730;DHT22;4904;49.152;11.004;2023-03-23T11:41:52;15.00;99.90
9730;DHT22;4904;49.152;11.004;2023-03-23T11:44:21;15.10;99.90
9730;DHT22;4904;49.152;11.004;2023-03-23T11:46:55;15.20;99.90
9730;DHT22;4904;49.152;11.004;2023-03-23T11:49:31;15.30;99.90
9730;DHT22;4904;49.152;11.004;2023-03-23T11:52:04;15.40;99.90
9730;DHT22;4904;49.152;11.004;2023-03-23T11:54:35;15.40;99.90
9730;DHT22;4904;49.152;11.004;2023-03-23T11:57:09;15.50;99.90
9730;DHT22;4904;49.152;11.004;2023-03-23T11:59:37;15.60;99.90
9730;DHT22;4904;49.152;11.004;2023-03-23T12:02:26;15.70;99.90
9730;DHT22;4904;49.152;11.004;2023-03-23T12:05:04;15.70;99.90
9730;DHT22;4904;49.152;11.004;2023-03-23T12:07:44;15.80;99.90
9730;DHT22;4904;49.152;11.004;2023-03-23T12:10:24;15.80;99.90
9730;DHT22;4904;49.152;11.004;2023-03-23T12:13:02;15.80;99.90
9730;DHT22;4904;49.152;11.004;2023-03-23T12:15:36;15.70;99.90
9730;DHT22;4904;49.152;11.004;2023-03-23T12:18:12;15.70;99.90
9730;DHT22;4904;49.152;11.004;2023-03-23T12:20:54;15.70;99.90
9730;DHT22;4904;49.152;11.004;2023-03-23T12:23:25;15.80;99.90
9730;DHT22;4904;49.152;11.004;2023-03-23T12:29:11;16.00;99.90
9730;DHT22;4904;49.152;11.004;2023-03-23T12:31:47;16.00;99.90
9730;DHT22;4904;49.152;11.004;2023-03-23T12:34:22;16.00;99.90
9730;DHT22;4904;49.152;11.004;2023-03-23T12:37:01;16.10;99.90
9730;DHT22;4904;49.152;11.004;2023-03-23T12:42:30;15.60;99.90
9730;DHT22;4904;49.152;11.004;2023-03-23T12:45:06;15.70;99.90
9730;DHT22;4904;49.152;11.004;2023-03-23T12:47:39;15.80;99.90
9730;DHT22;4904;49.152;11.004;2023-03-23T12:50:13;15.70;99.90
9730;DHT22;4904;49.152;11.004;2023-03-23T12:52:47;15.70;99.90
9730;DHT22;4904;49.152;11.004;2023-03-23T12:55:19;15.80;99.90
9730;DHT22;4904;49.152;11.004;2023-03-23T12:57:51;15.80;99.90
9730;DHT22;4904;49.152;11.004;2023-03-23T13:00:24;15.90;99.90
9730;DHT22;4904;49.152;11.004;2023-03-23T13:02:57;16.00;99.90
9730;DHT22;4904;49.152;11.004;2023-03-23T13:05:40;16.00;99.90
9730;DHT22;4904;49.152;11.004;2023-03-23T13:08:14;16.10;99.90
9730;DHT22;4904;49.152;11.004;2023-03-23T13:10:45;16.00;99.90
9730;DHT22;4904;49.152;11.004;2023-03-23T13:13:16;16.00;99.90
9730;DHT22;4904;49.152;11.004;2023-03-23T13:15:55;15.90;99.90
9730;DHT22;4904;49.152;11.004;2023-03-23T13:18:30;15.90;99.90
9730;DHT22;4904;49.152;11.004;2023-03-23T13:21:07;16.00;99.90
9730;DHT22;4904;49.152;11.004;2023-03-23T13:23:39;15.90;99.90
9730;DHT22;4904;49.152;11.004;2023-03-23T13:26:08;15.90;99.90
9730;DHT22;4904;49.152;11.004;2023-03-23T13:28:48;16.10;99.90
9730;DHT22;4904;49.152;11.004;2023-03-23T13:31:21;16.00;99.90
9730;DHT22;4904;49.152;11.004;2023-03-23T13:33:52;16.00;99.90
9730;DHT22;4904;49.152;11.004;2023-03-23T13:36:27;15.90;99.90
9730;DHT22;4904;49.152;11.004;2023-03-23T13:38:55;15.80;99.90
9730;DHT22;4904;49.152;11.004;2023-03-23T13:41:23;15.80;99.90
9730;DHT22;4904;49.152;11.004;2023-03-23T13:43:50;15.80;99.90
9730;DHT22;4904;49.152;11.004;2023-03-23T13:46:27;15.80;99.90
9730;DHT22;4904;49.152;11.004;2023-03-23T13:49:16;15.70;99.90
9730;DHT22;4904;49.152;11.004;2023-03-23T13:51:59;15.80;99.90
9730;DHT22;4904;49.152;11.004;2023-03-23T13:54:32;15.70;99.90
9730;DHT22;4904;49.152;11.004;2023-03-23T14:00:25;15.80;99.90
9730;DHT22;4904;49.152;11.004;2023-03-23T14:03:00;15.70;99.90
9730;DHT22;4904;49.152;11.004;2023-03-23T14:05:32;15.80;99.90
9730;DHT22;4904;49.152;11.004;2023-03-23T14:08:02;15.90;99.90
9730;DHT22;4904;49.152;11.004;2023-03-23T14:10:41;15.90;99.90
9730;DHT22;4904;49.152;11.004;2023-03-23T14:13:16;15.90;99.90
9730;DHT22;4904;49.152;11.004;2023-03-23T14:15:54;16.00;99.90
9730;DHT22;4904;49.152;11.004;2023-03-23T14:18:26;16.00;99.90
9730;DHT22;4904;49.152;11.004;2023-03-23T14:20:55;16.00;99.90
9730;DHT22;4904;49.152;11.004;2023-03-23T14:23:23;16.00;99.90
9730;DHT22;4904;49.152;11.004;2023-03-23T14:25:59;16.10;99.90
9730;DHT22;4904;49.152;11.004;2023-03-23T14:28:37;16.10;99.90
9730;DHT22;4904;49.152;11.004;2023-03-23T14:31:05;16.10;99.90
9730;DHT22;4904;49.152;11.004;2023-03-23T14:33:38;16.00;99.90
9730;DHT22;4904;49.152;11.004;2023-03-23T14:36:07;15.90;99.90
9730;DHT22;4904;49.152;11.004;2023-03-23T14:38:34;15.90;99.90
9730;DHT22;4904;49.152;11.004;2023-03-23T14:41:03;15.80;99.90
9730;DHT22;4904;49.152;11.004;2023-03-23T14:43:32;15.80;99.90
9730;DHT22;4904;49.152;11.004;2023-03-23T14:46:03;15.80;99.90
9730;DHT22;4904;49.152;11.004;2023-03-23T14:48:32;15.70;99.90
9730;DHT22;4904;49.152;11.004;2023-03-23T14:51:02;15.70;99.90
9730;DHT22;4904;49.152;11.004;2023-03-23T14:53:32;15.70;99.90
9730;DHT22;4904;49.152;11.004;2023-03-23T14:56:02;15.70;99.90
9730;DHT22;4904;49.152;11.004;2023-03-23T14:58:30;15.80;99.90
9730;DHT22;4904;49.152;11.004;2023-03-23T15:00:59;15.80;99.90
9730;DHT22;4904;49.152;11.004;2023-03-23T15:03:30;15.80;99.90
9730;DHT22;4904;49.152;11.004;2023-03-23T15:06:04;15.80;99.90
9730;DHT22;4904;49.152;11.004;2023-03-23T15:08:33;15.80;99.90
9730;DHT22;4904;49.152;11.004;2023-03-23T15:11:06;15.80;99.90
9730;DHT22;4904;49.152;11.004;2023-03-23T15:13:34;15.90;99.90
9730;DHT22;4904;49.152;11.004;2023-03-23T15:16:06;15.90;99.90
9730;DHT22;4904;49.152;11.004;2023-03-23T15:18:36;15.80;99.90
9730;DHT22;4904;49.152;11.004;2023-03-23T15:21:21;15.90;99.90
9730;DHT22;4904;49.152;11.004;2023-03-23T15:23:48;15.80;99.90
9730;DHT22;4904;49.152;11.004;2023-03-23T15:26:29;15.80;99.90
9730;DHT22;4904;49.152;11.004;2023-03-23T15:29:16;15.70;99.90
9730;DHT22;4904;49.152;11.004;2023-03-23T15:31:46;15.70;99.90
9730;DHT22;4904;49.152;11.004;2023-03-23T15:34:20;15.70;99.90
9730;DHT22;4904;49.152;11.004;2023-03-23T15:36:56;15.70;99.90
9730;DHT22;4904;49.152;11.004;2023-03-23T15:39:24;15.60;99.90
9730;DHT22;4904;49.152;11.004;2023-03-23T15:41:52;15.70;99.90
9730;DHT22;4904;49.152;11.004;2023-03-23T15:44:26;15.70;99.90
9730;DHT22;4904;49.152;11.004;2023-03-23T15:47:03;15.70;99.90
9730;DHT22;4904;49.152;11.004;2023-03-23T15:49:30;15.70;99.90
9730;DHT22;4904;49.152;11.004;2023-03-23T15:51:59;15.70;99.90
9730;DHT22;4904;49.152;11.004;2023-03-23T15:54:30;15.70;99.90
9730;DHT22;4904;49.152;11.004;2023-03-23T15:56:57;15.70;99.90
9730;DHT22;4904;49.152;11.004;2023-03-23T15:59:24;15.60;99.90
9730;DHT22;4904;49.152;11.004;2023-03-23T16:01:51;15.60;99.90
9730;DHT22;4904;49.152;11.004;2023-03-23T16:04:18;15.50;99.90
9730;DHT22;4904;49.152;11.004;2023-03-23T16:06:46;15.60;99.90
9730;DHT22;4904;49.152;11.004;2023-03-23T16:09:17;15.50;99.90
9730;DHT22;4904;49.152;11.004;2023-03-23T16:11:45;15.50;99.90
9730;DHT22;4904;49.152;11.004;2023-03-23T16:14:12;15.40;99.90
9730;DHT22;4904;49.152;11.004;2023-03-23T16:16:42;15.40;99.90
9730;DHT22;4904;49.152;11.004;2023-03-23T16:19:11;15.30;99.90
9730;DHT22;4904;49.152;11.004;2023-03-23T16:21:38;15.30;99.90